sensor_id;sensor_type;location;lat;lon;timestamp;pressure;altitude;pressure_sealevel;temperature;humidity
43161;BME280;40968;52.342;5.528;2023-02-22T00:00:20;101572.63;;;7.37;79.41
43161;BME280;40968;52.342;5.528;2023-02-22T00:02:54;101558.63;;;7.32;79.89
43161;BME280;40968;52.342;5.528;2023-02-22T00:05:24;101565.38;;;7.39;80.22
43161;BME280;40968;52.342;5.528;2023-02-22T00:07:52;101567.28;;;7.37;80.52
43161;BME280;40968;52.342;5.528;2023-02-22T00:10:22;101572.63;;;7.37;80.33
43161;BME280;40968;52.342;5.528;2023-02-22T00:12:51;101462.22;;;6.68;80.26
43161;BME280;40968;52.342;5.528;2023-02-22T00:15:22;101516.31;;;7.06;80.33
43161;BME280;40968;52.342;5.528;2023-02-22T00:17:51;101565.72;;;7.33;80.33
43161;BME280;40968;52.342;5.528;2023-02-22T00:20:19;101570.72;;;7.39;80.38
43161;BME280;40968;52.342;5.528;2023-02-22T00:22:48;101565.38;;;7.39;80.38
43161;BME280;40968;52.342;5.528;2023-02-22T00:25:16;101519.75;;;7.08;80.19
43161;BME280;40968;52.342;5.528;2023-02-22T00:27:45;101547.34;;;7.26;80.58
43161;BME280;40968;52.342;5.528;2023-02-22T00:30:16;101545.84;;;7.21;80.54
43161;BME280;40968;52.342;5.528;2023-02-22T00:32:44;101542.53;;;7.16;80.19
43161;BME280;40968;52.342;5.528;2023-02-22T00:35:11;101570.09;;;7.34;80.34
43161;BME280;40968;52.342;5.528;2023-02-22T00:37:38;101571.16;;;7.29;80.22
43161;BME280;40968;52.342;5.528;2023-02-22T00:40:08;101512.28;;;6.97;80.13
43161;BME280;40968;52.342;5.528;2023-02-22T00:42:34;101557.19;;;7.24;80.27
43161;BME280;40968;52.342;5.528;2023-02-22T00:45:01;101564.97;;;7.29;79.93
43161;BME280;40968;52.342;5.528;2023-02-22T00:47:29;101569.47;;;7.28;80.00
43161;BME280;40968;52.342;5.528;2023-02-22T00:49:56;101560.50;;;7.29;79.96
43161;BME280;40968;52.342;5.528;2023-02-22T00:52:22;101548.44;;;7.22;79.94
43161;BME280;40968;52.342;5.528;2023-02-22T00:54:49;101567.56;;;7.30;79.89
43161;BME280;40968;52.342;5.528;2023-02-22T00:57:15;101555.16;;;7.29;79.65
43161;BME280;40968;52.342;5.528;2023-02-22T00:59:43;101523.59;;;7.03;79.21
43161;BME280;40968;52.342;5.528;2023-02-22T01:02:10;101565.34;;;7.21;79.27
43161;BME280;40968;52.342;5.528;2023-02-22T01:04:38;101434.72;;;6.48;79.50
43161;BME280;40968;52.342;5.528;2023-02-22T01:07:05;101552.19;;;7.18;79.41
43161;BME280;40968;52.342;5.528;2023-02-22T01:09:32;101537.69;;;7.05;79.28
43161;BME280;40968;52.342;5.528;2023-02-22T01:11:59;101534.19;;;7.04;79.43
43161;BME280;40968;52.342;5.528;2023-02-22T01:14:27;101552.31;;;7.15;79.04
43161;BME280;40968;52.342;5.528;2023-02-22T01:16:54;101537.22;;;7.16;79.39
43161;BME280;40968;52.342;5.528;2023-02-22T01:19:21;101451.72;;;6.64;79.50
43161;BME280;40968;52.342;5.528;2023-02-22T01:21:50;101503.38;;;6.99;78.89
43161;BME280;40968;52.342;5.528;2023-02-22T01:24:17;101448.16;;;6.64;79.16
43161;BME280;40968;52.342;5.528;2023-02-22T01:26:50;101427.66;;;6.47;79.12
43161;BME280;40968;52.342;5.528;2023-02-22T01:29:17;101480.34;;;6.78;79.20
43161;BME280;40968;52.342;5.528;2023-02-22T01:31:50;101493.16;;;6.89;79.79
43161;BME280;40968;52.342;5.528;2023-02-22T01:34:19;101492.19;;;6.90;79.41
43161;BME280;40968;52.342;5.528;2023-02-22T01:36:46;101509.72;;;6.96;79.84
43161;BME280;40968;52.342;5.528;2023-02-22T01:39:14;101516.47;;;7.03;79.80
43161;BME280;40968;52.342;5.528;2023-02-22T01:41:42;101456.75;;;6.71;79.93
43161;BME280;40968;52.342;5.528;2023-02-22T01:44:17;101522.59;;;7.05;79.80
43161;BME280;40968;52.342;5.528;2023-02-22T01:46:45;101512.94;;;7.03;79.69
43161;BME280;40968;52.342;5.528;2023-02-22T01:49:12;101486.09;;;6.88;79.71
43161;BME280;40968;52.342;5.528;2023-02-22T01:51:41;101511.22;;;7.02;79.55
43161;BME280;40968;52.342;5.528;2023-02-22T01:54:12;101510.28;;;7.03;79.52
43161;BME280;40968;52.342;5.528;2023-02-22T01:56:44;101506.03;;;6.99;79.52
43161;BME280;40968;52.342;5.528;2023-02-22T01:59:12;101480.94;;;6.85;79.91
43161;BME280;40968;52.342;5.528;2023-02-22T02:01:39;101441.91;;;6.65;79.91
43161;BME280;40968;52.342;5.528;2023-02-22T02:04:12;101501.81;;;6.94;80.04
43161;BME280;40968;52.342;5.528;2023-02-22T02:06:40;101499.34;;;6.90;79.64
43161;BME280;40968;52.342;5.528;2023-02-22T02:09:11;101488.94;;;6.85;79.93
43161;BME280;40968;52.342;5.528;2023-02-22T02:11:41;101386.09;;;6.25;79.90
43161;BME280;40968;52.342;5.528;2023-02-22T02:14:10;101457.97;;;6.63;80.27
43161;BME280;40968;52.342;5.528;2023-02-22T02:16:40;101484.66;;;6.81;80.52
43161;BME280;40968;52.342;5.528;2023-02-22T02:19:10;101446.66;;;6.58;80.10
43161;BME280;40968;52.342;5.528;2023-02-22T02:22:04;101490.13;;;6.78;80.00
43161;BME280;40968;52.342;5.528;2023-02-22T02:24:58;101480.66;;;6.72;80.07
43161;BME280;40968;52.342;5.528;2023-02-22T02:27:55;101478.13;;;6.69;80.24
43161;BME280;40968;52.342;5.528;2023-02-22T02:31:01;101465.88;;;6.65;80.50
43161;BME280;40968;52.342;5.528;2023-02-22T02:33:37;101409.13;;;6.26;80.45
43161;BME280;40968;52.342;5.528;2023-02-22T02:36:13;101377.25;;;6.06;80.48
43161;BME280;40968;52.342;5.528;2023-02-22T02:38:45;101447.28;;;6.46;80.63
43161;BME280;40968;52.342;5.528;2023-02-22T02:41:15;101396.91;;;6.22;80.61
43161;BME280;40968;52.342;5.528;2023-02-22T02:43:50;101469.56;;;6.62;80.21
43161;BME280;40968;52.342;5.528;2023-02-22T02:46:22;101438.47;;;6.44;80.04
43161;BME280;40968;52.342;5.528;2023-02-22T02:48:54;101424.78;;;6.33;79.91
43161;BME280;40968;52.342;5.528;2023-02-22T02:51:24;101462.66;;;6.58;80.22
43161;BME280;40968;52.342;5.528;2023-02-22T02:53:54;101351.06;;;5.96;79.91
43161;BME280;40968;52.342;5.528;2023-02-22T02:56:21;101418.25;;;6.40;79.67
43161;BME280;40968;52.342;5.528;2023-02-22T02:58:50;101449.25;;;6.60;79.92
43161;BME280;40968;52.342;5.528;2023-02-22T03:01:28;101406.97;;;6.35;80.09
43161;BME280;40968;52.342;5.528;2023-02-22T03:04:10;101436.94;;;6.57;79.83
43161;BME280;40968;52.342;5.528;2023-02-22T03:07:04;101434.44;;;6.54;79.92
43161;BME280;40968;52.342;5.528;2023-02-22T03:09:43;101443.38;;;6.53;80.08
43161;BME280;40968;52.342;5.528;2023-02-22T03:12:21;101414.66;;;6.41;80.17
43161;BME280;40968;52.342;5.528;2023-02-22T03:14:59;101379.66;;;6.12;79.51
43161;BME280;40968;52.342;5.528;2023-02-22T03:17:37;101368.78;;;5.96;79.33
43161;BME280;40968;52.342;5.528;2023-02-22T03:20:11;101415.38;;;6.25;79.35
43161;BME280;40968;52.342;5.528;2023-02-22T03:22:44;101432.59;;;6.37;79.35
43161;BME280;40968;52.342;5.528;2023-02-22T03:25:16;101387.09;;;6.04;79.34
43161;BME280;40968;52.342;5.528;2023-02-22T03:27:47;101423.03;;;6.33;79.71
43161;BME280;40968;52.342;5.528;2023-02-22T03:30:18;101312.72;;;5.62;79.43
43161;BME280;40968;52.342;5.528;2023-02-22T03:32:48;101330.69;;;5.76;79.16
43161;BME280;40968;52.342;5.528;2023-02-22T03:35:19;101378.34;;;6.02;79.42
43161;BME280;40968;52.342;5.528;2023-02-22T03:37:50;101410.16;;;6.24;79.52
43161;BME280;40968;52.342;5.528;2023-02-22T03:40:30;101431.84;;;6.34;79.20
43161;BME280;40968;52.342;5.528;2023-02-22T03:43:01;101426.41;;;6.37;79.67
43161;BME280;40968;52.342;5.528;2023-02-22T03:45:29;101379.66;;;6.12;79.40
43161;BME280;40968;52.342;5.528;2023-02-22T03:48:02;101381.66;;;6.07;79.10
43161;BME280;40968;52.342;5.528;2023-02-22T03:50:34;101415.22;;;6.28;78.94
43161;BME280;40968;52.342;5.528;2023-02-22T03:53:01;101380.09;;;6.03;78.77
43161;BME280;40968;52.342;5.528;2023-02-22T03:55:28;101353.41;;;5.84;78.73
43161;BME280;40968;52.342;5.528;2023-02-22T03:57:57;101381.16;;;5.97;78.69
43161;BME280;40968;52.342;5.528;2023-02-22T04:00:26;101409.69;;;6.14;78.86
43161;BME280;40968;52.342;5.528;2023-02-22T04:02:53;101321.63;;;5.61;78.73
43161;BME280;40968;52.342;5.528;2023-02-22T04:05:20;101385.00;;;5.91;78.83
43161;BME280;40968;52.342;5.528;2023-02-22T04:07:50;101398.81;;;6.00;78.88
43161;BME280;40968;52.342;5.528;2023-02-22T04:10:17;101401.50;;;6.00;78.79
43161;BME280;40968;52.342;5.528;2023-02-22T04:12:44;101357.34;;;5.75;79.13
43161;BME280;40968;52.342;5.528;2023-02-22T04:15:13;101351.97;;;5.76;79.45
43161;BME280;40968;52.342;5.528;2023-02-22T04:17:40;101395.34;;;5.97;79.11
43161;BME280;40968;52.342;5.528;2023-02-22T04:20:08;101339.47;;;5.59;79.30
43161;BME280;40968;52.342;5.528;2023-02-22T04:22:35;101389.38;;;5.92;79.20
43161;BME280;40968;52.342;5.528;2023-02-22T04:25:04;101396.56;;;5.90;79.18
43161;BME280;40968;52.342;5.528;2023-02-22T04:27:31;101353.25;;;5.68;79.06
43161;BME280;40968;52.342;5.528;2023-02-22T04:29:58;101388.66;;;5.89;79.08
43161;BME280;40968;52.342;5.528;2023-02-22T04:32:25;101354.19;;;5.67;79.23
43161;BME280;40968;52.342;5.528;2023-02-22T04:34:51;101350.94;;;5.60;79.04
43161;BME280;40968;52.342;5.528;2023-02-22T04:37:18;101377.56;;;5.79;79.32
43161;BME280;40968;52.342;5.528;2023-02-22T04:39:44;101246.50;;;4.97;79.22
43161;BME280;40968;52.342;5.528;2023-02-22T04:42:12;101323.53;;;5.39;79.48
43161;BME280;40968;52.342;5.528;2023-02-22T04:44:39;101343.31;;;5.52;79.40
43161;BME280;40968;52.342;5.528;2023-02-22T04:47:06;101348.44;;;5.57;79.38
43161;BME280;40968;52.342;5.528;2023-02-22T04:49:32;101346.63;;;5.57;79.49
43161;BME280;40968;52.342;5.528;2023-02-22T04:51:59;101306.66;;;5.40;79.71
43161;BME280;40968;52.342;5.528;2023-02-22T04:54:25;101224.94;;;4.85;79.89
43161;BME280;40968;52.342;5.528;2023-02-22T04:56:52;101306.72;;;5.38;79.93
43161;BME280;40968;52.342;5.528;2023-02-22T04:59:20;101295.56;;;5.30;80.02
43161;BME280;40968;52.342;5.528;2023-02-22T05:01:46;101295.50;;;5.31;80.04
43161;BME280;40968;52.342;5.528;2023-02-22T05:04:13;101270.56;;;5.15;80.20
43161;BME280;40968;52.342;5.528;2023-02-22T05:06:40;101323.19;;;5.46;80.09
43161;BME280;40968;52.342;5.528;2023-02-22T05:09:06;101297.06;;;5.36;80.20
43161;BME280;40968;52.342;5.528;2023-02-22T05:11:33;101209.88;;;4.85;80.19
43161;BME280;40968;52.342;5.528;2023-02-22T05:13:59;101271.91;;;5.24;80.39
43161;BME280;40968;52.342;5.528;2023-02-22T05:16:27;101308.81;;;5.51;80.54
43161;BME280;40968;52.342;5.528;2023-02-22T05:18:54;101287.09;;;5.41;80.95
43161;BME280;40968;52.342;5.528;2023-02-22T05:21:21;101289.91;;;5.38;80.57
43161;BME280;40968;52.342;5.528;2023-02-22T05:23:47;101326.16;;;5.59;80.93
43161;BME280;40968;52.342;5.528;2023-02-22T05:26:14;101270.78;;;5.29;81.18
43161;BME280;40968;52.342;5.528;2023-02-22T05:28:41;101295.72;;;5.46;81.30
43161;BME280;40968;52.342;5.528;2023-02-22T05:31:07;101331.34;;;5.62;81.27
43161;BME280;40968;52.342;5.528;2023-02-22T05:33:35;101239.94;;;5.06;80.79
43161;BME280;40968;52.342;5.528;2023-02-22T05:36:04;101320.97;;;5.56;80.88
43161;BME280;40968;52.342;5.528;2023-02-22T05:38:32;101311.41;;;5.52;80.95
43161;BME280;40968;52.342;5.528;2023-02-22T05:40:58;101315.16;;;5.48;81.08
43161;BME280;40968;52.342;5.528;2023-02-22T05:43:25;101296.22;;;5.35;81.15
43161;BME280;40968;52.342;5.528;2023-02-22T05:45:52;101301.03;;;5.46;81.53
43161;BME280;40968;52.342;5.528;2023-02-22T05:48:19;101308.09;;;5.47;81.25
43161;BME280;40968;52.342;5.528;2023-02-22T05:50:47;101126.00;;;4.40;81.72
43161;BME280;40968;52.342;5.528;2023-02-22T05:53:14;101295.59;;;5.49;82.03
43161;BME280;40968;52.342;5.528;2023-02-22T05:55:41;101192.81;;;4.91;82.08
43161;BME280;40968;52.342;5.528;2023-02-22T05:58:08;101201.28;;;4.99;81.70
43161;BME280;40968;52.342;5.528;2023-02-22T06:00:34;101256.78;;;5.26;82.13
43161;BME280;40968;52.342;5.528;2023-02-22T06:03:03;101286.69;;;5.50;82.21
43161;BME280;40968;52.342;5.528;2023-02-22T06:05:30;101241.03;;;5.21;81.95
43161;BME280;40968;52.342;5.528;2023-02-22T06:07:58;101143.66;;;4.61;81.77
43161;BME280;40968;52.342;5.528;2023-02-22T06:10:25;101280.69;;;5.45;81.68
43161;BME280;40968;52.342;5.528;2023-02-22T06:12:53;101198.84;;;4.94;82.08
43161;BME280;40968;52.342;5.528;2023-02-22T06:15:21;101283.34;;;5.45;81.85
43161;BME280;40968;52.342;5.528;2023-02-22T06:17:48;101244.84;;;5.15;81.76
43161;BME280;40968;52.342;5.528;2023-02-22T06:20:17;101288.06;;;5.40;82.20
43161;BME280;40968;52.342;5.528;2023-02-22T06:22:46;101242.09;;;5.17;81.88
43161;BME280;40968;52.342;5.528;2023-02-22T06:25:16;101115.63;;;4.35;82.01
43161;BME280;40968;52.342;5.528;2023-02-22T06:27:43;101066.38;;;4.07;82.04
43161;BME280;40968;52.342;5.528;2023-02-22T06:30:11;101263.94;;;5.24;82.26
43161;BME280;40968;52.342;5.528;2023-02-22T06:32:38;101129.56;;;4.40;82.23
43161;BME280;40968;52.342;5.528;2023-02-22T06:35:06;101254.72;;;5.12;82.38
43161;BME280;40968;52.342;5.528;2023-02-22T06:37:33;101284.78;;;5.33;82.46
43161;BME280;40968;52.342;5.528;2023-02-22T06:39:59;101218.69;;;5.06;82.56
43161;BME280;40968;52.342;5.528;2023-02-22T06:42:27;101234.19;;;5.15;82.67
43161;BME280;40968;52.342;5.528;2023-02-22T06:44:54;101199.84;;;4.92;82.54
43161;BME280;40968;52.342;5.528;2023-02-22T06:47:21;101271.44;;;5.35;82.90
43161;BME280;40968;52.342;5.528;2023-02-22T06:49:51;101268.78;;;5.35;83.01
43161;BME280;40968;52.342;5.528;2023-02-22T06:52:18;101223.34;;;5.01;83.09
43161;BME280;40968;52.342;5.528;2023-02-22T06:54:45;101118.72;;;4.45;82.78
43161;BME280;40968;52.342;5.528;2023-02-22T06:57:12;101278.78;;;5.29;82.91
43161;BME280;40968;52.342;5.528;2023-02-22T06:59:40;101240.78;;;5.07;82.81
43161;BME280;40968;52.342;5.528;2023-02-22T07:02:08;101289.41;;;5.29;83.06
43161;BME280;40968;52.342;5.528;2023-02-22T07:04:34;101288.53;;;5.29;82.90
43161;BME280;40968;52.342;5.528;2023-02-22T07:07:01;101229.91;;;4.92;82.69
43161;BME280;40968;52.342;5.528;2023-02-22T07:09:28;101248.81;;;5.05;83.05
43161;BME280;40968;52.342;5.528;2023-02-22T07:11:54;101184.84;;;4.70;83.53
43161;BME280;40968;52.342;5.528;2023-02-22T07:14:21;101223.81;;;4.90;83.75
43161;BME280;40968;52.342;5.528;2023-02-22T07:16:49;101172.97;;;4.58;83.54
43161;BME280;40968;52.342;5.528;2023-02-22T07:19:16;101229.00;;;4.93;83.75
43161;BME280;40968;52.342;5.528;2023-02-22T07:21:42;101265.91;;;5.20;83.73
43161;BME280;40968;52.342;5.528;2023-02-22T07:24:12;101197.78;;;4.78;84.07
43161;BME280;40968;52.342;5.528;2023-02-22T07:26:39;101237.88;;;5.13;84.15
43161;BME280;40968;52.342;5.528;2023-02-22T07:29:06;101048.13;;;4.01;83.87
43161;BME280;40968;52.342;5.528;2023-02-22T07:31:36;101267.06;;;5.34;84.12
43161;BME280;40968;52.342;5.528;2023-02-22T07:34:05;101116.06;;;4.45;83.96
43161;BME280;40968;52.342;5.528;2023-02-22T07:36:31;101261.88;;;5.30;84.18
43161;BME280;40968;52.342;5.528;2023-02-22T07:38:58;101217.81;;;5.06;84.27
43161;BME280;40968;52.342;5.528;2023-02-22T07:41:25;101273.97;;;5.38;84.09
43161;BME280;40968;52.342;5.528;2023-02-22T07:43:51;101229.75;;;5.16;83.88
43161;BME280;40968;52.342;5.528;2023-02-22T07:46:18;101274.47;;;5.46;84.01
43161;BME280;40968;52.342;5.528;2023-02-22T07:48:45;101270.72;;;5.50;83.92
43161;BME280;40968;52.342;5.528;2023-02-22T07:51:15;101269.78;;;5.51;84.04
43161;BME280;40968;52.342;5.528;2023-02-22T07:53:41;101254.28;;;5.42;84.13
43161;BME280;40968;52.342;5.528;2023-02-22T07:56:08;101273.03;;;5.58;84.10
43161;BME280;40968;52.342;5.528;2023-02-22T07:58:35;101269.78;;;5.51;83.74
43161;BME280;40968;52.342;5.528;2023-02-22T08:01:02;101278.44;;;5.56;83.73
43161;BME280;40968;52.342;5.528;2023-02-22T08:03:30;101187.94;;;5.01;83.71
43161;BME280;40968;52.342;5.528;2023-02-22T08:06:01;101105.03;;;4.54;83.70
43161;BME280;40968;52.342;5.528;2023-02-22T08:08:29;101240.22;;;5.40;83.88
43161;BME280;40968;52.342;5.528;2023-02-22T08:10:56;101230.94;;;5.29;84.08
43161;BME280;40968;52.342;5.528;2023-02-22T08:13:22;101272.03;;;5.60;83.78
43161;BME280;40968;52.342;5.528;2023-02-22T08:15:50;101267.06;;;5.72;83.92
43161;BME280;40968;52.342;5.528;2023-02-22T08:18:18;101225.91;;;5.42;83.61
43161;BME280;40968;52.342;5.528;2023-02-22T08:20:46;101202.47;;;5.31;83.75
43161;BME280;40968;52.342;5.528;2023-02-22T08:23:14;101275.91;;;5.72;83.81
43161;BME280;40968;52.342;5.528;2023-02-22T08:25:43;101282.88;;;5.75;83.71
43161;BME280;40968;52.342;5.528;2023-02-22T08:28:11;101247.75;;;5.49;83.47
43161;BME280;40968;52.342;5.528;2023-02-22T08:30:40;101179.47;;;5.11;83.63
43161;BME280;40968;52.342;5.528;2023-02-22T08:33:08;101199.38;;;5.22;83.88
43161;BME280;40968;52.342;5.528;2023-02-22T08:35:34;101261.25;;;5.63;84.08
43161;BME280;40968;52.342;5.528;2023-02-22T08:38:03;101242.28;;;5.52;84.01
43161;BME280;40968;52.342;5.528;2023-02-22T08:40:32;101185.88;;;5.26;83.99
43161;BME280;40968;52.342;5.528;2023-02-22T08:43:01;101167.84;;;5.14;83.71
43161;BME280;40968;52.342;5.528;2023-02-22T08:45:27;101203.47;;;5.29;83.67
43161;BME280;40968;52.342;5.528;2023-02-22T08:47:54;101123.00;;;4.87;83.73
43161;BME280;40968;52.342;5.528;2023-02-22T08:50:23;101215.97;;;5.46;83.82
43161;BME280;40968;52.342;5.528;2023-02-22T08:52:50;101271.97;;;5.81;83.73
43161;BME280;40968;52.342;5.528;2023-02-22T08:55:19;101192.63;;;5.34;83.80
43161;BME280;40968;52.342;5.528;2023-02-22T08:57:46;101231.69;;;5.70;83.55
43161;BME280;40968;52.342;5.528;2023-02-22T09:00:15;101106.81;;;4.93;83.15
43161;BME280;40968;52.342;5.528;2023-02-22T09:02:42;101224.81;;;5.65;83.45
43161;BME280;40968;52.342;5.528;2023-02-22T09:05:09;101150.31;;;5.29;83.61
43161;BME280;40968;52.342;5.528;2023-02-22T09:07:36;101259.78;;;5.94;83.61
43161;BME280;40968;52.342;5.528;2023-02-22T09:10:02;101153.06;;;5.27;83.52
43161;BME280;40968;52.342;5.528;2023-02-22T09:12:29;101245.28;;;5.82;83.26
43161;BME280;40968;52.342;5.528;2023-02-22T09:14:56;101178.91;;;5.43;83.22
43161;BME280;40968;52.342;5.528;2023-02-22T09:17:24;101270.00;;;6.04;83.51
43161;BME280;40968;52.342;5.528;2023-02-22T09:19:50;101212.97;;;5.73;83.18
43161;BME280;40968;52.342;5.528;2023-02-22T09:22:17;101233.34;;;5.91;82.98
43161;BME280;40968;52.342;5.528;2023-02-22T09:24:44;101252.59;;;6.16;82.89
43161;BME280;40968;52.342;5.528;2023-02-22T09:27:10;101218.94;;;5.95;82.68
43161;BME280;40968;52.342;5.528;2023-02-22T09:29:37;101172.41;;;5.68;82.55
43161;BME280;40968;52.342;5.528;2023-02-22T09:32:04;101244.47;;;6.19;82.61
43161;BME280;40968;52.342;5.528;2023-02-22T09:34:32;100992.81;;;4.70;82.46
43161;BME280;40968;52.342;5.528;2023-02-22T09:36:59;101218.22;;;6.11;82.62
43161;BME280;40968;52.342;5.528;2023-02-22T09:39:26;101243.28;;;6.24;82.38
43161;BME280;40968;52.342;5.528;2023-02-22T09:41:57;101208.44;;;6.11;82.38
43161;BME280;40968;52.342;5.528;2023-02-22T09:44:31;101251.53;;;6.37;82.22
43161;BME280;40968;52.342;5.528;2023-02-22T09:47:03;101183.31;;;6.00;81.93
43161;BME280;40968;52.342;5.528;2023-02-22T09:49:39;101254.91;;;6.41;81.94
43161;BME280;40968;52.342;5.528;2023-02-22T09:52:15;101259.16;;;6.45;81.88
43161;BME280;40968;52.342;5.528;2023-02-22T09:54:46;101243.88;;;6.49;81.81
43161;BME280;40968;52.342;5.528;2023-02-22T09:57:20;101186.63;;;6.22;81.70
43161;BME280;40968;52.342;5.528;2023-02-22T09:59:56;101196.34;;;6.41;81.63
43161;BME280;40968;52.342;5.528;2023-02-22T10:02:28;101232.19;;;6.69;81.61
43161;BME280;40968;52.342;5.528;2023-02-22T10:05:01;101238.16;;;6.74;81.34
43161;BME280;40968;52.342;5.528;2023-02-22T10:07:34;101186.94;;;6.51;80.93
43161;BME280;40968;52.342;5.528;2023-02-22T10:10:02;101052.84;;;5.84;80.94
43161;BME280;40968;52.342;5.528;2023-02-22T10:12:37;101154.19;;;6.49;80.91
43161;BME280;40968;52.342;5.528;2023-02-22T10:15:33;101124.28;;;6.44;80.74
43161;BME280;40968;52.342;5.528;2023-02-22T10:18:18;101205.66;;;7.01;80.35
43161;BME280;40968;52.342;5.528;2023-02-22T10:20:53;101149.31;;;6.75;80.21
43161;BME280;40968;52.342;5.528;2023-02-22T10:23:26;101189.94;;;7.12;80.49
43161;BME280;40968;52.342;5.528;2023-02-22T10:26:03;101137.28;;;6.84;79.88
43161;BME280;40968;52.342;5.528;2023-02-22T10:28:36;101188.59;;;7.21;79.69
43161;BME280;40968;52.342;5.528;2023-02-22T10:31:06;101177.75;;;7.24;79.44
43161;BME280;40968;52.342;5.528;2023-02-22T10:33:37;101183.78;;;7.27;79.53
43161;BME280;40968;52.342;5.528;2023-02-22T10:36:14;101162.03;;;7.19;79.32
43161;BME280;40968;52.342;5.528;2023-02-22T10:38:47;101173.56;;;7.36;79.08
43161;BME280;40968;52.342;5.528;2023-02-22T10:41:22;101136.97;;;7.22;79.47
43161;BME280;40968;52.342;5.528;2023-02-22T10:43:51;101160.91;;;7.55;79.46
43161;BME280;40968;52.342;5.528;2023-02-22T10:46:20;101107.41;;;7.26;79.15
43161;BME280;40968;52.342;5.528;2023-02-22T10:48:49;101067.34;;;7.12;78.57
43161;BME280;40968;52.342;5.528;2023-02-22T10:51:18;101149.03;;;7.61;78.07
43161;BME280;40968;52.342;5.528;2023-02-22T10:53:53;101140.25;;;7.59;78.14
43161;BME280;40968;52.342;5.528;2023-02-22T10:56:24;101146.09;;;7.66;77.92
43161;BME280;40968;52.342;5.528;2023-02-22T10:58:54;101178.75;;;8.01;78.12
43161;BME280;40968;52.342;5.528;2023-02-22T11:01:26;101125.06;;;7.75;78.08
43161;BME280;40968;52.342;5.528;2023-02-22T11:04:00;101151.38;;;7.97;77.65
43161;BME280;40968;52.342;5.528;2023-02-22T11:06:30;101181.13;;;8.22;77.09
43161;BME280;40968;52.342;5.528;2023-02-22T11:09:10;101161.72;;;8.04;76.37
43161;BME280;40968;52.342;5.528;2023-02-22T11:11:39;101149.19;;;8.04;76.59
43161;BME280;40968;52.342;5.528;2023-02-22T11:14:06;101111.13;;;7.86;76.56
43161;BME280;40968;52.342;5.528;2023-02-22T11:16:36;101179.53;;;8.34;76.26
43161;BME280;40968;52.342;5.528;2023-02-22T11:19:11;101149.44;;;8.16;75.78
43161;BME280;40968;52.342;5.528;2023-02-22T11:21:43;101108.66;;;7.97;76.02
43161;BME280;40968;52.342;5.528;2023-02-22T11:24:12;101180.81;;;8.42;75.15
43161;BME280;40968;52.342;5.528;2023-02-22T11:26:42;101032.69;;;7.58;74.79
43161;BME280;40968;52.342;5.528;2023-02-22T11:29:15;101139.94;;;8.26;74.91
43161;BME280;40968;52.342;5.528;2023-02-22T11:31:44;101159.72;;;8.38;74.83
43161;BME280;40968;52.342;5.528;2023-02-22T11:34:35;101138.91;;;8.28;75.01
43161;BME280;40968;52.342;5.528;2023-02-22T11:37:26;101120.41;;;8.25;75.08
43161;BME280;40968;52.342;5.528;2023-02-22T11:40:09;101139.47;;;8.34;75.17
43161;BME280;40968;52.342;5.528;2023-02-22T11:42:38;101000.09;;;7.53;75.37
43161;BME280;40968;52.342;5.528;2023-02-22T11:45:11;101115.31;;;8.21;75.57
43161;BME280;40968;52.342;5.528;2023-02-22T11:47:47;101133.75;;;8.25;76.20
43161;BME280;40968;52.342;5.528;2023-02-22T11:50:21;101123.09;;;8.09;76.34
43161;BME280;40968;52.342;5.528;2023-02-22T11:52:56;101144.25;;;8.28;76.84
43161;BME280;40968;52.342;5.528;2023-02-22T11:55:30;101078.91;;;7.89;77.38
43161;BME280;40968;52.342;5.528;2023-02-22T11:58:04;101164.84;;;8.41;77.14
43161;BME280;40968;52.342;5.528;2023-02-22T12:00:47;101130.59;;;8.33;77.08
43161;BME280;40968;52.342;5.528;2023-02-22T12:03:45;101153.47;;;8.53;77.15
43161;BME280;40968;52.342;5.528;2023-02-22T12:06:30;101114.66;;;8.32;76.56
43161;BME280;40968;52.342;5.528;2023-02-22T12:09:09;101153.75;;;8.63;76.58
43161;BME280;40968;52.342;5.528;2023-02-22T12:11:43;101114.72;;;8.46;76.46
43161;BME280;40968;52.342;5.528;2023-02-22T12:14:23;101013.03;;;7.90;76.13
43161;BME280;40968;52.342;5.528;2023-02-22T12:17:13;101151.56;;;8.70;76.08
43161;BME280;40968;52.342;5.528;2023-02-22T12:19:46;101103.97;;;8.48;75.60
43161;BME280;40968;52.342;5.528;2023-02-22T12:22:17;101131.16;;;8.69;75.58
43161;BME280;40968;52.342;5.528;2023-02-22T12:24:50;101113.78;;;8.61;75.50
43161;BME280;40968;52.342;5.528;2023-02-22T12:27:21;101118.28;;;8.61;75.52
43161;BME280;40968;52.342;5.528;2023-02-22T12:29:54;101086.84;;;8.50;75.33
43161;BME280;40968;52.342;5.528;2023-02-22T12:32:28;101131.34;;;8.80;74.96
43161;BME280;40968;52.342;5.528;2023-02-22T12:35:00;101110.53;;;8.71;74.87
43161;BME280;40968;52.342;5.528;2023-02-22T12:37:33;100996.78;;;8.09;74.43
43161;BME280;40968;52.342;5.528;2023-02-22T12:40:09;101018.63;;;8.30;74.45
43161;BME280;40968;52.342;5.528;2023-02-22T12:42:46;101074.00;;;8.57;73.98
43161;BME280;40968;52.342;5.528;2023-02-22T12:45:24;101120.47;;;8.98;74.09
43161;BME280;40968;52.342;5.528;2023-02-22T12:47:58;101103.09;;;8.90;73.84
43161;BME280;40968;52.342;5.528;2023-02-22T12:50:28;101073.13;;;8.71;73.33
43161;BME280;40968;52.342;5.528;2023-02-22T12:53:03;101124.28;;;9.08;73.54
43161;BME280;40968;52.342;5.528;2023-02-22T12:55:41;101092.50;;;8.89;72.93
43161;BME280;40968;52.342;5.528;2023-02-22T12:58:18;101108.78;;;9.13;72.82
43161;BME280;40968;52.342;5.528;2023-02-22T13:00:52;101061.47;;;8.86;72.76
43161;BME280;40968;52.342;5.528;2023-02-22T13:03:32;101040.56;;;8.78;72.73
43161;BME280;40968;52.342;5.528;2023-02-22T13:06:15;101112.00;;;9.33;72.75
43161;BME280;40968;52.342;5.528;2023-02-22T13:08:53;101109.81;;;9.39;72.29
43161;BME280;40968;52.342;5.528;2023-02-22T13:11:32;101114.84;;;9.44;72.29
43161;BME280;40968;52.342;5.528;2023-02-22T13:14:18;101106.59;;;9.47;72.18
43161;BME280;40968;52.342;5.528;2023-02-22T13:17:00;101112.44;;;9.54;72.07